Time;durP1;ratioP1;P1;durP2;ratioP2;P2;SDS_P1;SDS_P2;PMS_P1;PMS_P2;Temp;Humidity;BMP_temperature;BMP_pressure;BME280_temperature;BME280_humidity;BME280_pressure;Samples;Min_cycle;Max_cycle;Signal;HPM_P1;HPM_P2
2022/02/07 00:01:30;;;;;;;66.50;26.20;;;;;;;-3.39;66.71;97865.50;5004288;28;20042;-74
2022/02/07 00:03:59;;;;;;;67.40;26.47;;;;;;;-3.39;66.76;97851.31;5024946;28;20058;-75
2022/02/07 00:06:25;;;;;;;53.33;23.67;;;;;;;-3.38;67.36;97868.97;5016152;28;20145;-74
2022/02/07 00:08:53;;;;;;;51.40;22.30;;;;;;;-3.36;67.33;97862.38;5018613;28;20042;-74
2022/02/07 00:11:21;;;;;;;;;;;;;;;-3.33;67.91;97853.06;5018353;28;20068;-73
2022/02/07 00:13:47;;;;;;;51.40;20.93;;;;;;;-3.28;67.87;97864.72;5034425;28;19925;-74
2022/02/07 00:16:13;;;;;;;45.37;19.87;;;;;;;-3.21;67.69;97863.75;5014340;28;20514;-74
2022/02/07 00:18:40;;;;;;;58.77;23.00;;;;;;;-3.26;67.96;97852.97;5000417;28;20049;-74
2022/02/07 00:21:07;;;;;;;50.03;23.00;;;;;;;-3.21;68.27;97856.53;5024437;28;20057;-71
2022/02/07 00:23:33;;;;;;;55.93;22.37;;;;;;;-3.20;68.00;97858.19;5018369;28;20316;-83
2022/02/07 00:26:01;;;;;;;62.53;24.60;;;;;;;-3.20;68.44;97852.84;5012242;28;20422;-74
2022/02/07 00:28:27;;;;;;;79.57;24.77;;;;;;;-3.16;68.64;97856.69;5013388;28;20413;-74
2022/02/07 00:30:53;;;;;;;65.00;23.53;;;;;;;-3.10;68.71;97851.44;5018759;28;20049;-74
2022/02/07 00:33:19;;;;;;;53.63;20.13;;;;;;;-3.14;68.94;97846.56;5026853;28;20053;-74
2022/02/07 00:35:45;;;;;;;55.17;18.30;;;;;;;-3.05;68.91;97844.34;5023688;28;20046;-73
2022/02/07 00:38:17;;;;;;;49.97;18.67;;;;;;;-3.05;69.23;97836.31;5019124;28;20091;-74
2022/02/07 00:45:50;;;;;;;43.23;16.43;;;;;;;-2.97;69.74;97837.81;5026143;28;20042;-74
2022/02/07 00:48:16;;;;;;;41.97;15.30;;;;;;;-2.95;70.03;97825.03;5022036;28;20042;-74
2022/02/07 00:50:43;;;;;;;40.63;15.13;;;;;;;-2.90;69.81;97827.00;5016224;28;20081;-74
2022/02/07 00:53:12;;;;;;;39.75;15.65;;;;;;;-2.90;70.33;97830.47;5024750;28;20137;-74
2022/02/07 00:55:41;;;;;;;36.67;14.53;;;;;;;-2.91;70.45;97826.19;5024824;28;20050;-74
2022/02/07 00:58:08;;;;;;;43.90;14.80;;;;;;;-2.86;70.52;97825.47;5011655;28;20546;-74
2022/02/07 01:00:36;;;;;;;33.23;14.17;;;;;;;-2.87;70.59;97824.69;5026359;28;20045;-73
2022/02/07 01:03:02;;;;;;;29.60;13.33;;;;;;;-2.87;70.97;97829.19;5004703;28;20288;-73
2022/02/07 01:05:30;;;;;;;35.83;12.73;;;;;;;-2.87;70.92;97826.53;5022649;28;20080;-73
2022/02/07 01:07:59;;;;;;;35.27;13.20;;;;;;;-2.80;70.99;97829.91;5005022;28;20058;-73
2022/02/07 01:10:36;;;;;;;31.17;12.53;;;;;;;-2.90;71.76;97824.31;5027872;28;20107;-74
2022/02/07 01:13:12;;;;;;;31.10;12.07;;;;;;;-2.83;71.89;97835.69;5023976;28;20116;-71
2022/02/07 01:21:47;;;;;;;33.85;14.02;;;;;;;-2.86;72.24;97823.63;5004889;28;20593;-73
2022/02/07 01:51:53;;;;;;;32.80;11.47;;;;;;;-3.01;74.06;97818.75;5018629;28;20042;-74
2022/02/07 01:56:55;;;;;;;22.73;9.30;;;;;;;-2.91;73.95;97791.41;5030568;28;20052;-74
2022/02/07 01:59:22;;;;;;;26.83;10.18;;;;;;;-2.72;74.13;97816.13;5013031;28;20050;-73
2022/02/07 02:01:48;;;;;;;24.40;9.57;;;;;;;-2.68;74.23;97811.13;5030006;28;20057;-73
2022/02/07 02:04:16;;;;;;;24.60;9.63;;;;;;;-2.66;73.98;97811.72;5013975;28;20405;-74
2022/02/07 02:06:45;;;;;;;24.43;10.03;;;;;;;-2.59;73.97;97804.34;5011989;28;20088;-73
2022/02/07 02:09:23;;;;;;;;;;;;;;;-2.61;74.49;97824.38;5021533;28;20041;-73
2022/02/07 02:11:49;;;;;;;23.73;8.43;;;;;;;-2.70;74.87;97807.88;5032171;28;20456;-73
2022/02/07 02:20:04;;;;;;;24.47;8.53;;;;;;;-2.58;74.55;97810.53;5020663;28;20046;-72
2022/02/07 02:22:47;;;;;;;22.93;8.87;;;;;;;-2.55;74.55;97793.19;5009971;28;20621;-73
2022/02/07 02:36:28;;;;;;;18.67;8.43;;;;;;;-2.49;74.50;97773.47;5024364;28;20399;-73
2022/02/07 02:47:06;;;;;;;19.67;7.83;;;;;;;-2.45;74.91;97778.13;5027023;28;20053;-73
2022/02/07 02:49:43;;;;;;;25.17;8.67;;;;;;;-2.46;75.00;97789.88;5014360;28;20422;-73
2022/02/07 02:52:09;;;;;;;24.60;8.30;;;;;;;-2.44;75.19;97782.44;5027092;28;20041;-73
2022/02/07 02:54:37;;;;;;;22.27;8.10;;;;;;;-2.46;74.93;97759.63;5016105;28;20408;-72
2022/02/07 02:57:04;;;;;;;17.38;7.63;;;;;;;-2.34;74.57;97775.59;4997373;28;20119;-71
2022/02/07 02:59:30;;;;;;;22.07;8.03;;;;;;;-2.35;74.51;97780.16;5023220;28;20046;-73
2022/02/07 03:01:56;;;;;;;23.40;9.27;;;;;;;-2.31;74.57;97781.31;5003267;28;20074;-73
2022/02/07 03:04:22;;;;;;;21.10;7.43;;;;;;;-2.33;74.37;97775.38;5027378;28;20084;-72
2022/02/07 03:06:50;;;;;;;21.37;9.13;;;;;;;-2.34;74.47;97779.13;5018727;28;20108;-72
2022/02/07 03:09:17;;;;;;;24.40;9.03;;;;;;;-2.29;74.67;97781.88;5013483;28;20111;-72
2022/02/07 03:11:47;;;;;;;23.50;9.67;;;;;;;-2.30;74.26;97774.09;5030586;28;20087;-73
2022/02/07 03:14:33;;;;;;;27.60;9.97;;;;;;;-2.32;74.74;97778.88;5019903;28;20269;-72
2022/02/07 03:17:00;;;;;;;28.93;8.93;;;;;;;-2.31;74.62;97785.88;5014524;28;20045;-72
2022/02/07 03:19:26;;;;;;;22.87;8.70;;;;;;;-2.35;74.67;97780.16;5027508;28;20050;-72
2022/02/07 03:21:56;;;;;;;26.10;9.63;;;;;;;-2.28;74.49;97772.78;5017678;28;20085;-71
2022/02/07 03:24:22;;;;;;;27.37;8.90;;;;;;;-2.23;74.23;97774.75;5028183;28;20144;-72
2022/02/07 03:27:09;;;;;;;20.47;8.50;;;;;;;-2.26;74.47;97777.09;5033798;28;20046;-71
2022/02/07 03:29:40;;;;;;;30.43;10.33;;;;;;;-2.25;74.53;97770.72;5000817;28;20053;-70
2022/02/07 03:32:09;;;;;;;26.23;9.00;;;;;;;-2.23;74.59;97771.28;5012402;28;20129;-74
2022/02/07 03:34:59;;;;;;;23.83;9.20;;;;;;;-2.17;74.53;97767.63;5023346;28;20055;-71
2022/02/07 03:37:26;;;;;;;26.23;9.93;;;;;;;-2.15;74.45;97771.69;5029801;28;20042;-72
2022/02/07 03:39:52;;;;;;;24.50;9.77;;;;;;;-2.21;74.32;97753.91;5019309;28;20054;-71
2022/02/07 03:42:21;;;;;;;28.10;11.55;;;;;;;-2.13;74.60;97752.69;5024573;28;20048;-72
2022/02/07 03:44:58;;;;;;;41.70;15.57;;;;;;;-2.15;74.59;97752.94;5030960;28;20049;-73
2022/02/07 03:47:25;;;;;;;56.40;19.80;;;;;;;-2.09;74.51;97753.84;5023518;28;20581;-72
2022/02/07 03:49:52;;;;;;;44.97;17.35;;;;;;;-2.10;74.33;97748.72;5025647;28;20054;-72
2022/02/07 03:52:19;;;;;;;37.40;14.70;;;;;;;-2.08;74.42;97749.28;5010852;28;20534;-72
2022/02/07 03:54:45;;;;;;;36.90;14.80;;;;;;;-2.11;74.39;97749.78;5025644;28;20981;-73
2022/02/07 03:57:12;;;;;;;49.97;21.13;;;;;;;-2.10;74.42;97749.56;5017864;28;20042;-73
2022/02/07 03:59:39;;;;;;;51.33;22.27;;;;;;;-2.09;74.46;97751.16;5021283;28;20069;-73
2022/02/07 04:02:06;;;;;;;50.60;23.57;;;;;;;-2.24;74.61;97722.25;5002066;28;20560;-72
2022/02/07 04:04:40;;;;;;;52.57;25.27;;;;;;;-2.17;74.64;97732.81;5027593;28;20065;-75
2022/02/07 04:07:08;;;;;;;41.23;17.13;;;;;;;-2.05;74.47;97751.47;5009849;28;20087;-73
2022/02/07 04:09:41;;;;;;;33.77;14.83;;;;;;;-2.04;74.50;97745.88;5022604;28;20050;-75
2022/02/07 04:12:14;;;;;;;31.60;13.87;;;;;;;-2.03;74.42;97739.47;5023925;28;20055;-75
2022/02/07 04:14:50;;;;;;;29.50;11.87;;;;;;;-2.03;74.56;97747.50;5004609;28;20581;-72
2022/02/07 04:17:25;;;;;;;26.33;9.83;;;;;;;-2.03;74.47;97736.78;5024004;28;20083;-75
2022/02/07 04:19:59;;;;;;;30.00;10.15;;;;;;;-2.00;74.44;97741.66;5021082;28;20046;-74
2022/02/07 04:22:45;;;;;;;23.50;9.70;;;;;;;-2.03;74.39;97744.84;5023924;28;20049;-74
2022/02/07 04:25:33;;;;;;;30.10;11.13;;;;;;;-2.04;74.56;97734.34;5012948;28;20046;-74
2022/02/07 04:28:11;;;;;;;;;;;;;;;-2.00;74.59;97732.81;5015274;28;20053;-74
2022/02/07 04:30:39;;;;;;;33.93;13.93;;;;;;;-2.02;74.56;97732.25;5012826;28;19988;-74
2022/02/07 04:33:05;;;;;;;38.50;15.77;;;;;;;-2.01;74.66;97728.53;4997900;28;20065;-74
2022/02/07 04:35:32;;;;;;;35.73;14.60;;;;;;;-2.06;74.72;97715.03;5020357;28;20045;-74
2022/02/07 04:37:58;;;;;;;28.70;12.87;;;;;;;-2.07;74.83;97713.41;5021863;28;20107;-74
2022/02/07 04:40:25;;;;;;;41.17;18.07;;;;;;;-1.97;74.91;97726.97;5014896;28;20057;-74
2022/02/07 04:42:52;;;;;;;34.20;14.30;;;;;;;-2.01;74.98;97723.97;5019390;28;20060;-74
2022/02/07 04:53:38;;;;;;;47.00;20.37;;;;;;;-2.05;75.24;97706.75;5016170;28;20049;-73
2022/02/07 05:03:43;;;;;;;35.00;17.00;;;;;;;-1.83;75.34;97724.78;5025322;28;20449;-74
2022/02/07 05:14:29;;;;;;;28.73;10.17;;;;;;;-1.72;74.91;97723.03;5025312;28;20046;-73
2022/02/07 05:16:56;;;;;;;;;;;;;;;-1.70;75.09;97720.97;4992752;28;20045;-75
2022/02/07 05:19:32;;;;;;;20.90;8.27;;;;;;;-1.71;74.64;97724.69;5023624;28;19925;-74
2022/02/07 05:22:08;;;;;;;25.08;9.48;;;;;;;-1.74;75.03;97727.84;5023888;28;20128;-75
2022/02/07 05:24:50;;;;;;;21.40;8.93;;;;;;;-1.73;75.08;97722.25;5019223;28;20053;-71
2022/02/07 05:27:35;;;;;;;26.87;10.27;;;;;;;-1.84;75.01;97700.91;5034605;28;20083;-72
2022/02/07 05:30:16;;;;;;;26.37;10.10;;;;;;;-1.75;75.23;97727.06;5042060;28;20045;-72
2022/02/07 05:33:06;;;;;;;22.73;10.23;;;;;;;-1.72;75.12;97720.38;5019952;28;20058;-79
2022/02/07 05:35:49;;;;;;;24.67;9.77;;;;;;;-1.68;75.34;97723.38;5020249;28;20057;-72
2022/02/07 05:38:33;;;;;;;24.87;11.23;;;;;;;-1.68;75.15;97726.88;5013345;28;20092;-71
2022/02/07 05:41:28;;;;;;;36.57;12.93;;;;;;;-1.68;75.52;97731.41;5019224;28;20422;-73
2022/02/07 05:44:20;;;;;;;32.50;14.13;;;;;;;-1.67;75.33;97730.34;4997860;28;20065;-73
2022/02/07 05:47:07;;;;;;;38.20;16.98;;;;;;;-1.63;75.59;97739.56;4998791;28;20050;-72
2022/02/07 05:49:36;;;;;;;38.80;16.43;;;;;;;-1.61;75.46;97740.13;5031185;28;20041;-72
2022/02/07 05:52:25;;;;;;;46.50;18.35;;;;;;;-1.57;75.46;97734.00;5020744;28;20136;-73
2022/02/07 05:55:15;;;;;;;49.03;18.90;;;;;;;-1.53;75.32;97734.31;4970055;28;20062;-72
2022/02/07 05:58:00;;;;;;;38.23;13.67;;;;;;;-1.52;75.52;97735.94;5034730;28;20038;-71
2022/02/07 06:00:34;;;;;;;36.63;12.67;;;;;;;-1.49;75.64;97729.28;5015564;28;20514;-72
2022/02/07 06:03:07;;;;;;;34.27;12.43;;;;;;;-1.47;75.54;97727.16;5018621;28;20038;-70
2022/02/07 06:05:40;;;;;;;34.13;11.43;;;;;;;-1.44;75.21;97721.31;5013585;28;20457;-73
2022/02/07 06:08:16;;;;;;;28.27;11.30;;;;;;;-1.44;75.63;97732.03;5013393;28;20054;-72
2022/02/07 06:10:44;;;;;;;31.53;11.30;;;;;;;-1.44;75.48;97722.13;5021211;28;20049;-72
2022/02/07 06:13:12;;;;;;;32.42;11.43;;;;;;;-1.38;75.50;97723.00;5013032;28;20073;-72
2022/02/07 06:15:38;;;;;;;40.38;12.32;;;;;;;-1.37;75.71;97730.00;5021819;28;20129;-73
2022/02/07 06:18:04;;;;;;;40.20;12.15;;;;;;;-1.42;75.62;97713.81;5026626;28;20045;-74
2022/02/07 06:20:33;;;;;;;34.70;12.77;;;;;;;-1.35;75.77;97717.16;5023983;28;20052;-71
2022/02/07 06:22:59;;;;;;;34.40;12.83;;;;;;;-1.29;75.67;97720.72;4993440;28;20070;-73
2022/02/07 06:25:27;;;;;;;36.57;12.80;;;;;;;-1.25;75.52;97721.00;4991944;28;20565;-73
2022/02/07 06:27:53;;;;;;;;;;;;;;;-1.24;75.54;97728.81;4969306;28;20150;-71
2022/02/07 06:30:42;;;;;;;37.97;13.30;;;;;;;-1.35;75.76;97713.63;4992190;28;19933;-72
2022/02/07 06:33:09;;;;;;;36.20;12.75;;;;;;;-1.21;75.64;97727.50;4989444;28;20133;-74
2022/02/07 06:35:36;;;;;;;;;;;;;;;-1.21;75.48;97732.88;4992933;28;20054;-73
2022/02/07 06:38:03;;;;;;;32.37;10.63;;;;;;;-1.22;75.47;97736.63;5008260;28;19926;-72
2022/02/07 06:40:30;;;;;;;25.80;9.57;;;;;;;-1.20;75.42;97737.19;4974401;28;20077;-71
2022/02/07 06:42:57;;;;;;;29.92;11.30;;;;;;;-1.23;75.48;97724.28;4975231;28;20288;-74
2022/02/07 06:45:23;;;;;;;30.80;10.80;;;;;;;-1.17;75.38;97729.47;4981120;28;20136;-74
2022/02/07 06:47:49;;;;;;;35.50;10.80;;;;;;;-1.13;75.40;97734.31;4992894;28;20141;-75
2022/02/07 06:50:16;;;;;;;36.07;11.73;;;;;;;-1.14;75.42;97722.75;4984105;28;20055;-75
2022/02/07 06:52:42;;;;;;;30.73;10.83;;;;;;;-1.06;75.05;97727.72;4974015;28;20058;-75
2022/02/07 06:55:09;;;;;;;21.73;9.27;;;;;;;-1.05;75.23;97726.66;4972835;28;20054;-72
2022/02/07 06:57:38;;;;;;;30.50;11.10;;;;;;;-1.04;75.20;97732.81;4971531;28;20050;-71
2022/02/07 07:00:05;;;;;;;;;;;;;;;-1.03;75.24;97727.19;4989984;28;20524;-71
2022/02/07 07:02:35;;;;;;;32.20;11.30;;;;;;;-1.02;75.08;97730.69;4978715;28;19932;-72
2022/02/07 07:05:08;;;;;;;35.30;11.40;;;;;;;-1.02;75.11;97738.72;4990164;28;20054;-71
2022/02/07 07:07:37;;;;;;;32.07;11.13;;;;;;;-1.05;75.24;97732.00;4992151;28;20559;-72
2022/02/07 07:10:04;;;;;;;27.40;10.37;;;;;;;-1.04;75.19;97732.81;4986379;28;20046;-72
2022/02/07 07:12:31;;;;;;;;;;;;;;;-0.95;75.20;97741.22;4992155;28;20043;-72
2022/02/07 07:17:44;;;;;;;32.83;10.47;;;;;;;-0.94;75.36;97740.16;4979276;28;20133;-72
2022/02/07 07:20:11;;;;;;;23.25;10.35;;;;;;;-0.93;75.36;97733.75;4975104;28;20411;-72
2022/02/07 07:22:41;;;;;;;23.63;10.33;;;;;;;-0.95;75.17;97728.63;4968460;28;20189;-72
2022/02/07 07:25:16;;;;;;;33.00;12.10;;;;;;;-0.92;75.31;97736.19;4985532;28;20046;-73
2022/02/07 07:28:05;;;;;;;26.33;11.07;;;;;;;-0.96;75.45;97732.38;4963495;28;20053;-72
2022/02/07 07:30:45;;;;;;;31.40;11.10;;;;;;;-0.92;75.29;97727.34;4991384;28;20120;-73
2022/02/07 07:33:17;;;;;;;32.60;11.30;;;;;;;-0.93;75.47;97725.72;4989615;28;20149;-72
2022/02/07 07:35:43;;;;;;;31.03;12.37;;;;;;;-0.93;75.51;97723.81;4967256;28;20047;-75
2022/02/07 07:38:10;;;;;;;28.17;11.82;;;;;;;-0.89;75.46;97722.25;4959210;28;20086;-71
2022/02/07 07:40:38;;;;;;;37.70;15.32;;;;;;;-0.87;75.45;97720.13;4966715;28;20472;-74
2022/02/07 07:43:07;;;;;;;46.33;15.60;;;;;;;-0.83;75.49;97720.44;4957445;28;20104;-72
2022/02/07 07:46:04;;;;;;;32.20;12.93;;;;;;;-0.80;75.65;97719.16;4992667;28;20070;-72
2022/02/07 07:48:48;;;;;;;27.43;12.80;;;;;;;-0.79;75.58;97712.72;4990927;28;20051;-72
2022/02/07 08:02:47;;;;;;;45.87;16.83;;;;;;;-0.79;75.75;97699.28;4985180;28;20415;-73
2022/02/07 08:05:35;;;;;;;51.53;19.20;;;;;;;-0.72;75.91;97718.69;4961035;28;20046;-74
2022/02/07 08:08:43;;;;;;;38.93;15.77;;;;;;;-0.68;76.03;97717.13;4983845;28;20057;-75
2022/02/07 08:11:12;;;;;;;43.27;18.43;;;;;;;-0.63;75.92;97721.72;4988982;28;20051;-71
2022/02/07 08:13:47;;;;;;;60.27;24.37;;;;;;;-0.65;75.86;97730.03;4987413;28;20133;-72
2022/02/07 08:16:18;;;;;;;68.33;23.63;;;;;;;-0.62;75.81;97716.13;4975686;28;20088;-75
2022/02/07 08:18:45;;;;;;;47.40;19.73;;;;;;;-0.65;75.80;97718.47;4990459;28;20049;-73
2022/02/07 08:21:12;;;;;;;50.70;19.42;;;;;;;-0.61;76.02;97725.00;4987836;28;20073;-74
2022/02/07 08:23:39;;;;;;;46.87;17.60;;;;;;;-0.65;75.76;97708.56;4973222;28;20495;-75
2022/02/07 08:26:06;;;;;;;47.30;17.75;;;;;;;-0.56;75.58;97716.97;4952584;28;20078;-74
2022/02/07 08:28:33;;;;;;;;;;;;;;;-0.53;75.67;97703.03;4956959;28;20046;-75
2022/02/07 08:30:59;;;;;;;63.07;25.20;;;;;;;-0.56;75.68;97703.56;4970441;28;19930;-74
2022/02/07 08:33:26;;;;;;;51.30;20.43;;;;;;;-0.49;75.71;97712.22;4981433;28;20877;-72
2022/02/07 08:35:54;;;;;;;41.83;17.20;;;;;;;-0.50;75.74;97707.91;4988603;28;20085;-73
2022/02/07 08:38:20;;;;;;;;;;;;;;;-0.49;75.76;97708.72;4973314;28;20060;-72
2022/02/07 08:40:46;;;;;;;74.63;26.07;;;;;;;-0.55;75.81;97699.81;4984077;28;19944;-73
2022/02/07 08:43:12;;;;;;;55.63;21.60;;;;;;;-0.51;75.91;97708.97;4979944;28;20101;-71
2022/02/07 08:45:38;;;;;;;38.73;19.77;;;;;;;-0.45;75.92;97704.47;4989051;28;20570;-73
2022/02/07 08:48:05;;;;;;;44.53;20.27;;;;;;;-0.36;75.79;97705.63;4989291;28;20055;-71
2022/02/07 08:50:32;;;;;;;50.75;20.63;;;;;;;-0.28;75.42;97693.63;4974692;28;20053;-72
2022/02/07 08:53:02;;;;;;;61.17;24.58;;;;;;;-0.17;75.31;97695.31;4984610;28;20479;-73
2022/02/07 08:55:35;;;;;;;54.33;22.27;;;;;;;-0.07;75.15;97715.28;4990508;28;20622;-72
2022/02/07 08:58:09;;;;;;;61.63;21.77;;;;;;;-0.02;74.75;97700.00;4990113;28;20054;-71
2022/02/07 09:00:48;;;;;;;46.90;20.00;;;;;;;0.03;74.64;97691.19;4988803;28;20046;-72
2022/02/07 09:06:06;;;;;;;47.23;19.30;;;;;;;-0.10;74.18;97667.44;4976096;28;20141;-73
2022/02/07 09:11:11;;;;;;;46.30;18.77;;;;;;;-0.01;73.83;97692.75;5003540;28;20141;-72
2022/02/07 09:13:41;;;;;;;41.70;17.00;;;;;;;-0.02;73.68;97686.56;4987716;28;20069;-73
2022/02/07 09:18:37;;;;;;;57.30;19.37;;;;;;;0.03;73.48;97687.66;4990553;28;20482;-74
2022/02/07 09:21:06;;;;;;;54.23;20.90;;;;;;;0.03;73.45;97680.44;4990650;28;20093;-72
2022/02/07 09:23:34;;;;;;;38.43;16.40;;;;;;;0.09;73.34;97686.66;4991673;28;20128;-72
2022/02/07 09:26:01;;;;;;;40.23;15.50;;;;;;;0.05;73.35;97691.72;4974351;28;20046;-70
2022/02/07 09:28:28;;;;;;;38.57;14.93;;;;;;;-0.08;73.12;97666.13;4987854;28;20093;-70
2022/02/07 09:30:54;;;;;;;37.63;14.87;;;;;;;0.05;72.85;97691.72;4975300;28;20062;-70
2022/02/07 09:33:21;;;;;;;38.20;15.57;;;;;;;0.10;72.77;97686.38;4972535;28;20137;-70
2022/02/07 09:35:49;;;;;;;44.08;17.05;;;;;;;0.12;72.57;97684.25;4972839;28;20050;-72
2022/02/07 09:38:16;;;;;;;38.20;15.07;;;;;;;0.07;72.39;97670.78;4973487;28;20047;-70
2022/02/07 09:40:50;;;;;;;39.63;15.53;;;;;;;0.09;72.42;97674.00;4983673;28;20050;-70
2022/02/07 09:43:17;;;;;;;49.27;18.47;;;;;;;0.10;72.22;97680.22;4990465;28;20088;-71
2022/02/07 09:45:45;;;;;;;41.42;15.23;;;;;;;0.16;72.40;97673.78;4988648;28;20142;-72
2022/02/07 09:48:14;;;;;;;41.13;14.70;;;;;;;0.18;72.16;97684.28;4991390;28;20157;-70
2022/02/07 09:50:40;;;;;;;39.22;14.15;;;;;;;0.22;71.94;97680.00;4991625;28;20078;-72
2022/02/07 09:53:06;;;;;;;39.40;15.40;;;;;;;0.20;71.71;97682.94;4989658;28;20464;-70
2022/02/07 09:55:33;;;;;;;41.13;14.37;;;;;;;0.16;71.73;97678.34;4983138;28;20148;-70
2022/02/07 09:58:00;;;;;;;39.83;13.90;;;;;;;0.19;71.56;97681.31;4987496;28;20054;-72
2022/02/07 10:00:36;;;;;;;38.90;13.90;;;;;;;0.13;71.33;97671.63;4991190;28;20050;-72
2022/02/07 10:03:15;;;;;;;44.03;16.13;;;;;;;0.22;71.25;97685.38;4993735;28;20061;-71
2022/02/07 10:08:19;;;;;;;44.25;15.00;;;;;;;0.24;71.02;97689.44;4999496;28;20049;-72
2022/02/07 10:11:07;;;;;;;36.43;14.63;;;;;;;0.20;71.07;97666.81;5012752;28;20046;-70
2022/02/07 10:16:31;;;;;;;36.73;13.33;;;;;;;0.23;70.77;97687.00;4994679;28;20116;-72
2022/02/07 10:46:18;;;;;;;40.30;14.33;;;;;;;0.30;69.70;97676.81;4989349;28;20061;-72
2022/02/07 10:48:54;;;;;;;34.97;14.53;;;;;;;0.32;69.85;97672.03;4994644;28;20491;-72
2022/02/07 10:51:21;;;;;;;34.53;14.47;;;;;;;0.32;69.53;97663.94;4979986;28;20138;-72
2022/02/07 10:53:49;;;;;;;37.83;15.35;;;;;;;0.32;69.70;97671.19;4983894;28;20049;-73
2022/02/07 10:56:17;;;;;;;44.33;15.18;;;;;;;0.33;69.66;97670.94;4994044;28;20050;-74
2022/02/07 10:58:44;;;;;;;33.67;14.13;;;;;;;0.37;69.63;97674.72;4989575;28;20105;-72
2022/02/07 11:04:05;;;;;;;36.60;14.30;;;;;;;0.35;69.39;97659.91;4976283;28;20042;-72
2022/02/07 11:06:34;;;;;;;28.50;12.90;;;;;;;0.35;69.30;97658.03;4991817;28;20074;-72
2022/02/07 11:09:12;;;;;;;38.70;13.88;;;;;;;0.34;69.51;97680.63;4989949;28;20179;-72
2022/02/07 11:11:57;;;;;;;;;;;;;;;0.36;69.47;97666.91;4976111;28;20051;-72
2022/02/07 11:27:40;;;;;;;36.40;13.73;;;;;;;0.30;69.25;97652.63;4988205;28;20050;-69
2022/02/07 11:30:10;;;;;;;35.28;14.18;;;;;;;0.47;69.23;97671.28;4992694;28;20080;-72
2022/02/07 11:32:54;;;;;;;45.45;16.27;;;;;;;0.53;69.46;97672.91;4967979;28;20578;-72
2022/02/07 11:35:23;;;;;;;58.47;18.63;;;;;;;0.56;69.43;97676.97;4990366;28;20046;-72
2022/02/07 11:37:51;;;;;;;46.60;17.15;;;;;;;0.60;69.71;97671.88;4977739;28;20051;-72
2022/02/07 11:40:26;;;;;;;50.60;18.55;;;;;;;0.58;69.68;97679.41;4988657;28;20094;-71
2022/02/07 11:43:16;;;;;;;42.67;17.00;;;;;;;0.47;69.96;97657.00;4991423;28;20495;-71
2022/02/07 11:45:54;;;;;;;56.58;18.50;;;;;;;0.59;69.70;97678.34;4981635;28;20062;-69
2022/02/07 11:48:29;;;;;;;;;;;;;;;0.56;69.74;97667.03;4990217;28;20137;-71
2022/02/07 11:50:58;;;;;;;46.42;16.42;;;;;;;0.61;69.54;97668.13;4993018;28;19961;-71
2022/02/07 11:53:31;;;;;;;34.70;15.77;;;;;;;0.62;69.46;97661.66;4971481;28;20418;-70
2022/02/07 11:56:07;;;;;;;35.97;14.45;;;;;;;0.59;69.44;97667.59;4992118;28;20526;-70
2022/02/07 11:58:49;;;;;;;27.80;12.33;;;;;;;0.55;69.32;97667.28;4992743;28;20574;-71
2022/02/07 12:01:24;;;;;;;35.85;14.32;;;;;;;0.57;69.32;97665.13;4992321;28;20133;-69
2022/02/07 12:03:54;;;;;;;39.85;15.00;;;;;;;0.49;69.34;97655.69;4980834;28;20193;-70
2022/02/07 12:06:24;;;;;;;33.60;13.45;;;;;;;0.55;69.56;97665.41;4971920;28;20127;-71
2022/02/07 12:08:53;;;;;;;33.57;13.30;;;;;;;0.58;69.30;97674.81;4950407;28;20062;-71
2022/02/07 12:11:20;;;;;;;38.15;15.10;;;;;;;0.60;69.07;97670.00;4987927;28;20517;-71
2022/02/07 12:13:46;;;;;;;33.45;13.70;;;;;;;0.51;68.98;97653.53;4985013;28;20046;-71
2022/02/07 12:16:17;;;;;;;29.85;12.25;;;;;;;0.59;69.07;97671.06;4989219;28;20046;-71
2022/02/07 12:18:47;;;;;;;38.33;14.23;;;;;;;0.60;69.02;97658.44;4988323;28;20039;-71
2022/02/07 12:21:18;;;;;;;39.70;14.30;;;;;;;0.56;69.19;97661.66;4992676;28;20049;-69
2022/02/07 12:23:49;;;;;;;33.07;13.07;;;;;;;0.52;69.05;97649.00;4985796;28;20050;-71
2022/02/07 12:26:17;;;;;;;29.42;12.48;;;;;;;0.57;68.94;97662.44;5005070;28;20054;-69
2022/02/07 12:28:49;;;;;;;34.83;13.43;;;;;;;0.58;68.82;97658.69;4991336;28;20388;-72
2022/02/07 12:31:19;;;;;;;28.80;13.25;;;;;;;0.56;68.68;97660.84;4975552;28;20057;-71
2022/02/07 12:33:52;;;;;;;26.90;12.43;;;;;;;0.59;68.60;97656.81;4986304;28;20490;-70
2022/02/07 12:36:21;;;;;;;32.42;13.52;;;;;;;0.57;68.58;97649.00;4992063;28;20050;-71
2022/02/07 12:38:47;;;;;;;32.53;11.85;;;;;;;0.61;68.61;97660.84;4991080;28;20109;-71
2022/02/07 12:41:15;;;;;;;32.97;12.75;;;;;;;0.59;68.49;97657.63;4987970;28;20070;-69
2022/02/07 12:43:44;;;;;;;30.63;13.23;;;;;;;0.59;68.54;97665.69;4988527;28;20065;-69
2022/02/07 12:46:15;;;;;;;28.75;12.15;;;;;;;0.58;68.28;97658.69;4989533;28;20250;-69
2022/02/07 12:49:21;;;;;;;32.03;12.77;;;;;;;0.60;68.50;97666.50;4982679;28;20054;-69
2022/02/07 12:51:42;;;;;;;34.83;13.07;;;;;;;0.62;68.35;97656.28;4983208;28;20042;-70
2022/02/07 12:54:09;;;;;;;36.47;13.05;;;;;;;0.56;68.50;97634.75;4976258;28;20046;-76
2022/02/07 12:56:36;;;;;;;35.27;14.47;;;;;;;0.68;68.77;97649.84;4975206;28;20096;-69
2022/02/07 12:59:04;;;;;;;36.25;13.30;;;;;;;0.69;68.50;97659.53;4990718;28;20797;-74
2022/02/07 13:01:31;;;;;;;30.00;12.95;;;;;;;0.65;68.30;97663.84;4977959;28;20150;-75
2022/02/07 13:03:58;;;;;;;;;;;;;;;0.64;68.21;97662.22;4992721;28;20476;-74
2022/02/07 13:06:26;;;;;;;35.15;13.02;;;;;;;0.44;68.15;97638.72;5006251;28;19925;-74
2022/02/07 13:08:55;;;;;;;32.70;13.25;;;;;;;0.52;68.29;97662.44;4987908;28;20463;-75
2022/02/07 13:11:25;;;;;;;39.33;13.57;;;;;;;0.60;68.38;97661.91;4990467;28;20097;-75
2022/02/07 13:13:52;;;;;;;28.70;13.05;;;;;;;0.60;68.10;97658.44;4977112;28;20491;-75
2022/02/07 13:16:19;;;;;;;35.55;13.75;;;;;;;0.60;68.28;97655.75;4990614;28;20060;-74
2022/02/07 13:18:45;;;;;;;30.88;12.95;;;;;;;0.45;68.16;97625.03;4990923;28;20475;-75
2022/02/07 13:21:17;;;;;;;34.15;13.00;;;;;;;0.48;68.22;97627.19;4974197;28;20054;-74
2022/02/07 13:23:46;;;;;;;36.38;13.90;;;;;;;0.63;68.06;97650.66;4992151;28;20097;-75
2022/02/07 13:26:15;;;;;;;35.97;12.88;;;;;;;0.59;68.13;97646.84;4990216;28;20054;-75
2022/02/07 13:28:43;;;;;;;43.60;14.98;;;;;;;0.56;67.92;97633.94;4978286;28;20562;-74
2022/02/07 13:31:10;;;;;;;33.55;12.85;;;;;;;0.43;67.79;97619.09;4974059;28;20059;-74
2022/02/07 13:33:47;;;;;;;34.08;13.45;;;;;;;0.62;68.08;97650.91;4976419;28;20061;-75
2022/02/07 13:36:24;;;;;;;30.20;13.32;;;;;;;0.63;68.21;97658.72;4961346;28;20142;-75
2022/02/07 13:38:51;;;;;;;30.50;13.43;;;;;;;0.55;68.09;97637.69;4994390;28;20054;-75
2022/02/07 13:41:21;;;;;;;;;;;;;;;0.65;68.29;97667.34;4995518;28;20403;-72
2022/02/07 13:43:47;;;;;;;41.83;13.75;;;;;;;0.55;68.04;97640.41;4994021;28;19926;-75
2022/02/07 13:46:16;;;;;;;37.10;14.60;;;;;;;0.64;68.13;97654.16;4992628;28;20571;-75
2022/02/07 13:48:42;;;;;;;32.45;13.55;;;;;;;0.58;68.41;97656.00;4980039;28;20100;-75
2022/02/07 13:51:08;;;;;;;35.17;14.65;;;;;;;0.58;68.44;97657.91;4985232;28;20610;-74
2022/02/07 13:53:38;;;;;;;42.47;15.02;;;;;;;0.58;68.41;97664.06;4976580;28;20046;-75
2022/02/07 13:56:04;;;;;;;40.95;14.77;;;;;;;0.60;68.23;97658.44;4985690;28;20085;-75
2022/02/07 13:58:34;;;;;;;41.10;16.35;;;;;;;0.60;68.46;97661.91;4991518;28;20140;-75
2022/02/07 14:01:02;;;;;;;47.95;15.07;;;;;;;0.56;68.51;97652.75;4982763;28;20051;-75
2022/02/07 14:03:32;;;;;;;39.53;14.95;;;;;;;0.50;68.82;97659.19;4971316;28;20756;-70
2022/02/07 14:06:05;;;;;;;40.13;14.45;;;;;;;0.51;68.74;97658.13;4993897;28;20094;-75
2022/02/07 14:08:34;;;;;;;34.72;14.65;;;;;;;0.50;68.65;97654.63;4993488;28;20516;-74
2022/02/07 14:11:02;;;;;;;38.15;14.35;;;;;;;0.53;68.83;97653.28;4997769;28;20527;-74
2022/02/07 14:13:28;;;;;;;32.45;14.38;;;;;;;0.49;69.00;97644.13;4977977;28;20047;-75
2022/02/07 14:15:56;;;;;;;36.70;14.50;;;;;;;0.52;68.91;97651.69;4976448;28;20054;-75
2022/02/07 14:18:24;;;;;;;33.75;14.10;;;;;;;0.52;68.97;97649.00;4987915;28;20042;-75
2022/02/07 14:20:51;;;;;;;32.38;13.57;;;;;;;0.52;68.98;97651.69;4992615;28;21565;-74
2022/02/07 14:23:17;;;;;;;37.17;15.02;;;;;;;0.49;69.16;97646.81;4993416;28;20398;-75